sensor_id;sensor_type;location;lat;lon;timestamp;P1;durP1;ratioP1;P2;durP2;ratioP2
21771;SDS011;11047;47.904;8.110;2022-12-26T00:00:30;2.42;;;1.48;;
21771;SDS011;11047;47.904;8.110;2022-12-26T00:02:56;3.83;;;1.77;;
21771;SDS011;11047;47.904;8.110;2022-12-26T00:05:23;3.65;;;2.00;;
21771;SDS011;11047;47.904;8.110;2022-12-26T00:07:50;3.42;;;1.83;;
21771;SDS011;11047;47.904;8.110;2022-12-26T00:10:19;3.28;;;2.20;;
21771;SDS011;11047;47.904;8.110;2022-12-26T00:12:45;2.83;;;2.08;;
21771;SDS011;11047;47.904;8.110;2022-12-26T00:15:12;4.18;;;2.10;;
21771;SDS011;11047;47.904;8.110;2022-12-26T00:17:39;4.03;;;1.60;;
21771;SDS011;11047;47.904;8.110;2022-12-26T00:20:06;2.40;;;2.05;;
21771;SDS011;11047;47.904;8.110;2022-12-26T00:22:34;3.78;;;2.03;;
21771;SDS011;11047;47.904;8.110;2022-12-26T00:25:01;3.83;;;2.25;;
21771;SDS011;11047;47.904;8.110;2022-12-26T00:27:29;3.03;;;1.85;;
21771;SDS011;11047;47.904;8.110;2022-12-26T00:29:56;3.08;;;2.00;;
21771;SDS011;11047;47.904;8.110;2022-12-26T00:32:23;2.88;;;2.13;;
21771;SDS011;11047;47.904;8.110;2022-12-26T00:34:50;3.85;;;1.95;;
21771;SDS011;11047;47.904;8.110;2022-12-26T00:37:16;3.05;;;1.90;;
21771;SDS011;11047;47.904;8.110;2022-12-26T00:39:43;2.35;;;2.08;;
21771;SDS011;11047;47.904;8.110;2022-12-26T00:42:10;2.88;;;1.67;;
21771;SDS011;11047;47.904;8.110;2022-12-26T00:44:38;3.70;;;2.33;;
21771;SDS011;11047;47.904;8.110;2022-12-26T00:47:05;3.35;;;1.60;;
21771;SDS011;11047;47.904;8.110;2022-12-26T00:49:32;2.30;;;1.73;;
21771;SDS011;11047;47.904;8.110;2022-12-26T00:51:59;2.08;;;1.55;;
21771;SDS011;11047;47.904;8.110;2022-12-26T00:54:26;3.13;;;1.70;;
21771;SDS011;11047;47.904;8.110;2022-12-26T00:56:53;1.88;;;1.33;;
21771;SDS011;11047;47.904;8.110;2022-12-26T00:59:20;3.63;;;2.10;;
21771;SDS011;11047;47.904;8.110;2022-12-26T01:01:48;2.63;;;1.50;;
21771;SDS011;11047;47.904;8.110;2022-12-26T01:04:15;2.60;;;1.20;;
21771;SDS011;11047;47.904;8.110;2022-12-26T01:06:41;1.63;;;1.45;;
21771;SDS011;11047;47.904;8.110;2022-12-26T01:09:08;2.35;;;1.50;;
21771;SDS011;11047;47.904;8.110;2022-12-26T01:11:36;1.42;;;1.08;;
21771;SDS011;11047;47.904;8.110;2022-12-26T01:14:06;2.35;;;1.55;;
21771;SDS011;11047;47.904;8.110;2022-12-26T01:16:35;1.73;;;1.48;;
21771;SDS011;11047;47.904;8.110;2022-12-26T01:19:04;2.80;;;1.42;;
21771;SDS011;11047;47.904;8.110;2022-12-26T01:21:31;5.40;;;1.80;;
21771;SDS011;11047;47.904;8.110;2022-12-26T01:23:58;1.48;;;1.38;;
21771;SDS011;11047;47.904;8.110;2022-12-26T01:26:25;1.55;;;1.35;;
21771;SDS011;11047;47.904;8.110;2022-12-26T01:28:52;1.80;;;1.30;;
21771;SDS011;11047;47.904;8.110;2022-12-26T01:31:20;2.47;;;1.33;;
21771;SDS011;11047;47.904;8.110;2022-12-26T01:33:47;3.45;;;1.50;;
21771;SDS011;11047;47.904;8.110;2022-12-26T01:36:15;1.85;;;1.70;;
21771;SDS011;11047;47.904;8.110;2022-12-26T01:38:43;1.50;;;1.40;;
21771;SDS011;11047;47.904;8.110;2022-12-26T01:41:10;2.40;;;1.58;;
21771;SDS011;11047;47.904;8.110;2022-12-26T01:43:48;4.53;;;1.55;;
21771;SDS011;11047;47.904;8.110;2022-12-26T01:46:18;2.13;;;1.35;;
21771;SDS011;11047;47.904;8.110;2022-12-26T01:48:47;2.08;;;1.20;;
21771;SDS011;11047;47.904;8.110;2022-12-26T01:51:16;1.60;;;1.33;;
21771;SDS011;11047;47.904;8.110;2022-12-26T01:53:46;2.22;;;1.40;;
21771;SDS011;11047;47.904;8.110;2022-12-26T01:56:16;2.88;;;2.00;;
21771;SDS011;11047;47.904;8.110;2022-12-26T01:58:47;4.40;;;1.77;;
21771;SDS011;11047;47.904;8.110;2022-12-26T02:01:18;4.07;;;2.72;;
21771;SDS011;11047;47.904;8.110;2022-12-26T02:03:46;3.50;;;1.52;;
21771;SDS011;11047;47.904;8.110;2022-12-26T02:06:32;2.20;;;1.40;;
21771;SDS011;11047;47.904;8.110;2022-12-26T02:09:00;3.50;;;1.30;;
21771;SDS011;11047;47.904;8.110;2022-12-26T02:11:28;1.85;;;1.13;;
21771;SDS011;11047;47.904;8.110;2022-12-26T02:14:00;2.57;;;1.60;;
21771;SDS011;11047;47.904;8.110;2022-12-26T02:16:27;2.15;;;1.42;;
21771;SDS011;11047;47.904;8.110;2022-12-26T02:18:54;2.08;;;1.40;;
21771;SDS011;11047;47.904;8.110;2022-12-26T02:21:28;1.30;;;1.20;;
21771;SDS011;11047;47.904;8.110;2022-12-26T02:30:29;2.28;;;1.42;;
21771;SDS011;11047;47.904;8.110;2022-12-26T02:33:21;3.53;;;1.50;;
21771;SDS011;11047;47.904;8.110;2022-12-26T02:38:59;2.75;;;1.52;;
21771;SDS011;11047;47.904;8.110;2022-12-26T02:41:40;3.88;;;1.60;;
21771;SDS011;11047;47.904;8.110;2022-12-26T02:44:17;1.92;;;1.30;;
21771;SDS011;11047;47.904;8.110;2022-12-26T02:47:09;1.40;;;1.23;;
21771;SDS011;11047;47.904;8.110;2022-12-26T02:52:33;1.60;;;1.50;;
21771;SDS011;11047;47.904;8.110;2022-12-26T02:55:25;3.58;;;1.52;;
21771;SDS011;11047;47.904;8.110;2022-12-26T02:58:13;2.38;;;1.27;;
21771;SDS011;11047;47.904;8.110;2022-12-26T03:01:02;1.98;;;1.67;;
21771;SDS011;11047;47.904;8.110;2022-12-26T03:03:52;5.57;;;1.33;;
21771;SDS011;11047;47.904;8.110;2022-12-26T03:06:39;5.43;;;1.60;;
21771;SDS011;11047;47.904;8.110;2022-12-26T03:09:28;2.35;;;1.50;;
21771;SDS011;11047;47.904;8.110;2022-12-26T03:12:23;3.05;;;1.50;;
21771;SDS011;11047;47.904;8.110;2022-12-26T03:15:21;2.17;;;1.65;;
21771;SDS011;11047;47.904;8.110;2022-12-26T03:17:51;1.98;;;1.52;;
21771;SDS011;11047;47.904;8.110;2022-12-26T03:20:23;2.20;;;1.65;;
21771;SDS011;11047;47.904;8.110;2022-12-26T03:22:53;3.83;;;1.73;;
21771;SDS011;11047;47.904;8.110;2022-12-26T03:25:24;1.48;;;1.23;;
21771;SDS011;11047;47.904;8.110;2022-12-26T03:28:19;4.38;;;1.48;;
21771;SDS011;11047;47.904;8.110;2022-12-26T03:30:47;4.00;;;1.50;;
21771;SDS011;11047;47.904;8.110;2022-12-26T03:33:13;1.85;;;1.50;;
21771;SDS011;11047;47.904;8.110;2022-12-26T03:35:55;2.40;;;1.30;;
21771;SDS011;11047;47.904;8.110;2022-12-26T03:38:23;3.53;;;1.52;;
21771;SDS011;11047;47.904;8.110;2022-12-26T03:40:55;3.50;;;1.65;;
21771;SDS011;11047;47.904;8.110;2022-12-26T03:43:49;2.95;;;1.70;;
21771;SDS011;11047;47.904;8.110;2022-12-26T03:46:48;4.18;;;1.45;;
21771;SDS011;11047;47.904;8.110;2022-12-26T03:49:43;3.10;;;1.50;;
21771;SDS011;11047;47.904;8.110;2022-12-26T03:52:34;3.00;;;1.42;;
21771;SDS011;11047;47.904;8.110;2022-12-26T03:55:23;3.88;;;1.65;;
21771;SDS011;11047;47.904;8.110;2022-12-26T03:58:16;1.45;;;1.23;;
21771;SDS011;11047;47.904;8.110;2022-12-26T04:01:06;2.88;;;1.50;;
21771;SDS011;11047;47.904;8.110;2022-12-26T04:03:55;2.33;;;1.67;;
21771;SDS011;11047;47.904;8.110;2022-12-26T04:06:42;3.80;;;1.60;;
21771;SDS011;11047;47.904;8.110;2022-12-26T04:09:33;2.20;;;1.70;;
21771;SDS011;11047;47.904;8.110;2022-12-26T04:12:21;2.67;;;1.75;;
21771;SDS011;11047;47.904;8.110;2022-12-26T04:15:11;2.72;;;1.60;;
21771;SDS011;11047;47.904;8.110;2022-12-26T04:18:01;2.17;;;1.58;;
21771;SDS011;11047;47.904;8.110;2022-12-26T04:20:50;1.73;;;1.40;;
21771;SDS011;11047;47.904;8.110;2022-12-26T04:23:30;4.72;;;1.45;;
21771;SDS011;11047;47.904;8.110;2022-12-26T04:26:20;4.97;;;1.60;;
21771;SDS011;11047;47.904;8.110;2022-12-26T04:29:10;2.85;;;1.40;;
21771;SDS011;11047;47.904;8.110;2022-12-26T04:31:55;3.10;;;1.63;;
21771;SDS011;11047;47.904;8.110;2022-12-26T04:34:49;2.28;;;1.38;;
21771;SDS011;11047;47.904;8.110;2022-12-26T04:37:37;2.15;;;1.35;;
21771;SDS011;11047;47.904;8.110;2022-12-26T04:40:27;3.08;;;1.50;;
21771;SDS011;11047;47.904;8.110;2022-12-26T04:43:16;2.08;;;1.33;;
21771;SDS011;11047;47.904;8.110;2022-12-26T04:46:01;4.35;;;1.77;;
21771;SDS011;11047;47.904;8.110;2022-12-26T04:48:28;2.22;;;1.48;;
21771;SDS011;11047;47.904;8.110;2022-12-26T04:51:12;1.75;;;1.50;;
21771;SDS011;11047;47.904;8.110;2022-12-26T04:53:39;2.47;;;1.40;;
21771;SDS011;11047;47.904;8.110;2022-12-26T04:56:07;1.83;;;1.13;;
21771;SDS011;11047;47.904;8.110;2022-12-26T04:58:36;1.77;;;1.20;;
21771;SDS011;11047;47.904;8.110;2022-12-26T05:01:02;3.78;;;1.70;;
21771;SDS011;11047;47.904;8.110;2022-12-26T05:03:43;2.05;;;1.58;;
21771;SDS011;11047;47.904;8.110;2022-12-26T05:06:30;2.95;;;1.70;;
21771;SDS011;11047;47.904;8.110;2022-12-26T05:09:14;2.13;;;1.50;;
21771;SDS011;11047;47.904;8.110;2022-12-26T05:12:00;2.83;;;1.50;;
21771;SDS011;11047;47.904;8.110;2022-12-26T05:14:29;2.58;;;1.30;;
21771;SDS011;11047;47.904;8.110;2022-12-26T05:16:56;2.72;;;1.30;;
21771;SDS011;11047;47.904;8.110;2022-12-26T05:19:40;3.17;;;1.30;;
21771;SDS011;11047;47.904;8.110;2022-12-26T05:22:25;1.98;;;1.40;;
21771;SDS011;11047;47.904;8.110;2022-12-26T05:25:08;2.13;;;1.25;;
21771;SDS011;11047;47.904;8.110;2022-12-26T05:27:59;3.95;;;1.58;;
21771;SDS011;11047;47.904;8.110;2022-12-26T05:30:44;2.10;;;1.30;;
21771;SDS011;11047;47.904;8.110;2022-12-26T05:33:11;2.40;;;1.40;;
21771;SDS011;11047;47.904;8.110;2022-12-26T05:35:56;3.85;;;1.40;;
21771;SDS011;11047;47.904;8.110;2022-12-26T05:38:23;3.80;;;1.45;;
21771;SDS011;11047;47.904;8.110;2022-12-26T05:40:50;1.42;;;1.30;;
21771;SDS011;11047;47.904;8.110;2022-12-26T05:43:17;3.20;;;1.30;;
21771;SDS011;11047;47.904;8.110;2022-12-26T05:45:46;2.85;;;1.58;;
21771;SDS011;11047;47.904;8.110;2022-12-26T05:48:13;1.83;;;1.38;;
21771;SDS011;11047;47.904;8.110;2022-12-26T05:50:40;2.97;;;1.58;;
21771;SDS011;11047;47.904;8.110;2022-12-26T05:53:07;3.28;;;1.60;;
21771;SDS011;11047;47.904;8.110;2022-12-26T05:55:33;2.47;;;1.30;;
21771;SDS011;11047;47.904;8.110;2022-12-26T05:58:00;2.35;;;1.50;;
21771;SDS011;11047;47.904;8.110;2022-12-26T06:00:28;3.97;;;1.80;;
21771;SDS011;11047;47.904;8.110;2022-12-26T06:02:57;4.53;;;1.40;;
21771;SDS011;11047;47.904;8.110;2022-12-26T06:05:26;2.38;;;1.45;;
21771;SDS011;11047;47.904;8.110;2022-12-26T06:07:53;2.83;;;1.20;;
21771;SDS011;11047;47.904;8.110;2022-12-26T06:10:20;2.85;;;1.40;;
21771;SDS011;11047;47.904;8.110;2022-12-26T06:12:47;1.88;;;1.50;;
21771;SDS011;11047;47.904;8.110;2022-12-26T06:15:14;1.70;;;1.20;;
21771;SDS011;11047;47.904;8.110;2022-12-26T06:17:40;1.73;;;1.30;;
21771;SDS011;11047;47.904;8.110;2022-12-26T06:20:09;1.73;;;1.50;;
21771;SDS011;11047;47.904;8.110;2022-12-26T06:22:36;2.78;;;1.55;;
21771;SDS011;11047;47.904;8.110;2022-12-26T06:25:04;1.60;;;1.30;;
21771;SDS011;11047;47.904;8.110;2022-12-26T06:27:31;1.65;;;1.40;;
21771;SDS011;11047;47.904;8.110;2022-12-26T06:29:58;2.83;;;1.63;;
21771;SDS011;11047;47.904;8.110;2022-12-26T06:32:25;1.98;;;1.38;;
21771;SDS011;11047;47.904;8.110;2022-12-26T06:34:52;2.70;;;1.55;;
21771;SDS011;11047;47.904;8.110;2022-12-26T06:37:20;1.92;;;1.50;;
21771;SDS011;11047;47.904;8.110;2022-12-26T06:39:47;3.75;;;1.60;;
21771;SDS011;11047;47.904;8.110;2022-12-26T06:42:14;2.33;;;1.58;;
21771;SDS011;11047;47.904;8.110;2022-12-26T06:44:41;2.92;;;1.60;;
21771;SDS011;11047;47.904;8.110;2022-12-26T06:47:07;2.38;;;1.45;;
21771;SDS011;11047;47.904;8.110;2022-12-26T06:49:34;2.58;;;1.55;;
21771;SDS011;11047;47.904;8.110;2022-12-26T06:52:01;1.48;;;1.30;;
21771;SDS011;11047;47.904;8.110;2022-12-26T06:54:30;2.83;;;1.67;;
21771;SDS011;11047;47.904;8.110;2022-12-26T06:56:56;2.30;;;1.50;;
21771;SDS011;11047;47.904;8.110;2022-12-26T06:59:23;3.03;;;1.55;;
21771;SDS011;11047;47.904;8.110;2022-12-26T07:01:50;3.08;;;1.50;;
21771;SDS011;11047;47.904;8.110;2022-12-26T07:04:17;2.58;;;1.50;;
21771;SDS011;11047;47.904;8.110;2022-12-26T07:06:44;1.95;;;1.48;;
21771;SDS011;11047;47.904;8.110;2022-12-26T07:09:12;2.38;;;1.42;;
21771;SDS011;11047;47.904;8.110;2022-12-26T07:11:43;2.78;;;1.60;;
21771;SDS011;11047;47.904;8.110;2022-12-26T07:14:11;1.45;;;1.33;;
21771;SDS011;11047;47.904;8.110;2022-12-26T07:16:40;3.97;;;1.50;;
21771;SDS011;11047;47.904;8.110;2022-12-26T07:19:08;2.13;;;1.48;;
21771;SDS011;11047;47.904;8.110;2022-12-26T07:21:36;2.30;;;1.55;;
21771;SDS011;11047;47.904;8.110;2022-12-26T07:24:04;1.90;;;1.60;;
21771;SDS011;11047;47.904;8.110;2022-12-26T07:26:32;1.77;;;1.52;;
21771;SDS011;11047;47.904;8.110;2022-12-26T07:29:00;2.45;;;1.60;;
21771;SDS011;11047;47.904;8.110;2022-12-26T07:31:27;2.63;;;1.30;;
21771;SDS011;11047;47.904;8.110;2022-12-26T07:33:54;3.85;;;1.70;;
21771;SDS011;11047;47.904;8.110;2022-12-26T07:36:21;2.22;;;1.33;;
21771;SDS011;11047;47.904;8.110;2022-12-26T07:38:50;2.13;;;1.45;;
21771;SDS011;11047;47.904;8.110;2022-12-26T07:41:17;1.85;;;1.42;;
21771;SDS011;11047;47.904;8.110;2022-12-26T07:44:02;3.13;;;1.75;;
21771;SDS011;11047;47.904;8.110;2022-12-26T07:46:30;2.63;;;1.65;;
21771;SDS011;11047;47.904;8.110;2022-12-26T07:48:57;2.42;;;1.58;;
21771;SDS011;11047;47.904;8.110;2022-12-26T07:51:24;2.20;;;1.40;;
21771;SDS011;11047;47.904;8.110;2022-12-26T07:53:52;2.05;;;1.60;;
21771;SDS011;11047;47.904;8.110;2022-12-26T07:56:19;2.67;;;1.38;;
21771;SDS011;11047;47.904;8.110;2022-12-26T07:58:46;1.80;;;1.30;;
21771;SDS011;11047;47.904;8.110;2022-12-26T08:01:15;1.52;;;1.27;;
21771;SDS011;11047;47.904;8.110;2022-12-26T08:03:43;2.22;;;1.35;;
21771;SDS011;11047;47.904;8.110;2022-12-26T08:06:10;2.78;;;1.20;;
21771;SDS011;11047;47.904;8.110;2022-12-26T08:08:37;1.73;;;1.45;;
21771;SDS011;11047;47.904;8.110;2022-12-26T08:11:05;1.48;;;1.25;;
21771;SDS011;11047;47.904;8.110;2022-12-26T08:13:33;1.70;;;1.20;;
21771;SDS011;11047;47.904;8.110;2022-12-26T08:16:03;2.72;;;1.08;;
21771;SDS011;11047;47.904;8.110;2022-12-26T08:18:32;2.53;;;1.20;;
21771;SDS011;11047;47.904;8.110;2022-12-26T08:20:59;1.52;;;1.30;;
21771;SDS011;11047;47.904;8.110;2022-12-26T08:23:26;1.75;;;1.25;;
21771;SDS011;11047;47.904;8.110;2022-12-26T08:25:53;1.20;;;1.10;;
21771;SDS011;11047;47.904;8.110;2022-12-26T08:28:20;1.30;;;1.20;;
21771;SDS011;11047;47.904;8.110;2022-12-26T08:30:47;1.73;;;1.40;;
21771;SDS011;11047;47.904;8.110;2022-12-26T08:33:15;5.10;;;1.40;;
21771;SDS011;11047;47.904;8.110;2022-12-26T08:35:43;2.47;;;1.60;;
21771;SDS011;11047;47.904;8.110;2022-12-26T08:38:10;1.45;;;1.30;;
21771;SDS011;11047;47.904;8.110;2022-12-26T08:40:37;2.17;;;1.52;;
21771;SDS011;11047;47.904;8.110;2022-12-26T08:43:04;3.40;;;1.70;;
21771;SDS011;11047;47.904;8.110;2022-12-26T08:45:31;2.05;;;1.38;;
21771;SDS011;11047;47.904;8.110;2022-12-26T08:47:58;2.97;;;1.50;;
21771;SDS011;11047;47.904;8.110;2022-12-26T08:50:27;1.50;;;1.23;;
21771;SDS011;11047;47.904;8.110;2022-12-26T08:52:55;3.83;;;1.65;;
21771;SDS011;11047;47.904;8.110;2022-12-26T08:55:22;4.85;;;1.60;;
21771;SDS011;11047;47.904;8.110;2022-12-26T08:57:49;2.22;;;1.85;;
21771;SDS011;11047;47.904;8.110;2022-12-26T09:00:16;2.38;;;1.55;;
21771;SDS011;11047;47.904;8.110;2022-12-26T09:02:43;5.30;;;1.67;;
21771;SDS011;11047;47.904;8.110;2022-12-26T09:05:10;3.97;;;2.25;;
21771;SDS011;11047;47.904;8.110;2022-12-26T09:07:37;2.45;;;2.00;;
21771;SDS011;11047;47.904;8.110;2022-12-26T09:10:06;3.15;;;2.00;;
21771;SDS011;11047;47.904;8.110;2022-12-26T09:12:33;4.53;;;2.80;;
21771;SDS011;11047;47.904;8.110;2022-12-26T09:15:00;3.38;;;2.13;;
21771;SDS011;11047;47.904;8.110;2022-12-26T09:17:27;4.63;;;1.90;;
21771;SDS011;11047;47.904;8.110;2022-12-26T09:19:54;3.28;;;1.73;;
21771;SDS011;11047;47.904;8.110;2022-12-26T09:22:20;2.72;;;1.30;;
21771;SDS011;11047;47.904;8.110;2022-12-26T09:25:07;3.47;;;1.63;;
21771;SDS011;11047;47.904;8.110;2022-12-26T09:27:36;2.55;;;1.50;;
21771;SDS011;11047;47.904;8.110;2022-12-26T09:30:03;1.77;;;1.40;;
21771;SDS011;11047;47.904;8.110;2022-12-26T09:32:31;1.88;;;1.00;;
21771;SDS011;11047;47.904;8.110;2022-12-26T09:34:58;1.27;;;1.10;;
21771;SDS011;11047;47.904;8.110;2022-12-26T09:37:25;3.58;;;1.23;;
21771;SDS011;11047;47.904;8.110;2022-12-26T09:39:52;1.10;;;0.90;;
21771;SDS011;11047;47.904;8.110;2022-12-26T09:42:22;1.98;;;1.10;;
21771;SDS011;11047;47.904;8.110;2022-12-26T09:45:02;1.33;;;1.17;;
21771;SDS011;11047;47.904;8.110;2022-12-26T09:47:35;0.50;;;0.50;;
21771;SDS011;11047;47.904;8.110;2022-12-26T09:50:09;2.97;;;0.82;;
21771;SDS011;11047;47.904;8.110;2022-12-26T09:52:39;0.70;;;0.70;;
21771;SDS011;11047;47.904;8.110;2022-12-26T09:55:17;0.50;;;0.50;;
21771;SDS011;11047;47.904;8.110;2022-12-26T09:57:54;0.85;;;0.55;;
21771;SDS011;11047;47.904;8.110;2022-12-26T10:00:24;0.40;;;0.40;;
21771;SDS011;11047;47.904;8.110;2022-12-26T10:02:56;1.48;;;1.13;;
21771;SDS011;11047;47.904;8.110;2022-12-26T10:05:25;3.38;;;2.83;;
21771;SDS011;11047;47.904;8.110;2022-12-26T10:07:57;2.50;;;1.75;;
21771;SDS011;11047;47.904;8.110;2022-12-26T10:10:28;2.35;;;2.05;;
21771;SDS011;11047;47.904;8.110;2022-12-26T10:13:06;3.15;;;1.00;;
21771;SDS011;11047;47.904;8.110;2022-12-26T10:15:40;2.50;;;0.95;;
21771;SDS011;11047;47.904;8.110;2022-12-26T10:18:22;1.38;;;0.93;;
21771;SDS011;11047;47.904;8.110;2022-12-26T10:21:09;0.93;;;0.57;;
21771;SDS011;11047;47.904;8.110;2022-12-26T10:23:44;1.10;;;0.95;;
21771;SDS011;11047;47.904;8.110;2022-12-26T10:26:14;1.67;;;0.77;;
21771;SDS011;11047;47.904;8.110;2022-12-26T10:28:46;3.22;;;0.50;;
21771;SDS011;11047;47.904;8.110;2022-12-26T10:31:20;1.15;;;0.85;;
21771;SDS011;11047;47.904;8.110;2022-12-26T10:33:55;1.20;;;0.95;;
21771;SDS011;11047;47.904;8.110;2022-12-26T10:36:31;1.75;;;0.73;;
21771;SDS011;11047;47.904;8.110;2022-12-26T10:39:02;1.13;;;0.80;;
21771;SDS011;11047;47.904;8.110;2022-12-26T10:41:33;1.10;;;0.60;;
21771;SDS011;11047;47.904;8.110;2022-12-26T10:44:07;1.38;;;0.70;;
21771;SDS011;11047;47.904;8.110;2022-12-26T10:46:38;0.47;;;0.43;;
21771;SDS011;11047;47.904;8.110;2022-12-26T10:49:22;1.05;;;0.60;;
21771;SDS011;11047;47.904;8.110;2022-12-26T10:51:52;1.58;;;1.10;;
21771;SDS011;11047;47.904;8.110;2022-12-26T10:54:21;2.40;;;0.60;;
21771;SDS011;11047;47.904;8.110;2022-12-26T10:56:49;1.27;;;0.75;;
21771;SDS011;11047;47.904;8.110;2022-12-26T10:59:19;0.68;;;0.68;;
21771;SDS011;11047;47.904;8.110;2022-12-26T11:01:48;0.60;;;0.60;;
21771;SDS011;11047;47.904;8.110;2022-12-26T11:04:17;0.60;;;0.60;;
21771;SDS011;11047;47.904;8.110;2022-12-26T11:06:46;0.73;;;0.65;;
21771;SDS011;11047;47.904;8.110;2022-12-26T11:09:22;0.77;;;0.68;;
21771;SDS011;11047;47.904;8.110;2022-12-26T11:11:56;0.68;;;0.68;;
21771;SDS011;11047;47.904;8.110;2022-12-26T11:14:28;0.55;;;0.55;;
21771;SDS011;11047;47.904;8.110;2022-12-26T11:16:58;1.30;;;0.95;;
21771;SDS011;11047;47.904;8.110;2022-12-26T11:19:30;0.38;;;0.30;;
21771;SDS011;11047;47.904;8.110;2022-12-26T11:25:01;0.63;;;0.63;;
21771;SDS011;11047;47.904;8.110;2022-12-26T11:27:36;0.40;;;0.40;;
21771;SDS011;11047;47.904;8.110;2022-12-26T11:30:17;0.30;;;0.30;;
21771;SDS011;11047;47.904;8.110;2022-12-26T11:35:28;0.20;;;0.20;;
21771;SDS011;11047;47.904;8.110;2022-12-26T11:38:01;1.98;;;0.32;;
21771;SDS011;11047;47.904;8.110;2022-12-26T11:40:32;0.82;;;0.68;;
21771;SDS011;11047;47.904;8.110;2022-12-26T11:43:02;0.65;;;0.52;;
21771;SDS011;11047;47.904;8.110;2022-12-26T11:45:35;0.20;;;0.20;;
21771;SDS011;11047;47.904;8.110;2022-12-26T11:48:07;0.30;;;0.25;;
21771;SDS011;11047;47.904;8.110;2022-12-26T11:50:47;0.57;;;0.40;;
21771;SDS011;11047;47.904;8.110;2022-12-26T11:53:15;0.40;;;0.40;;
21771;SDS011;11047;47.904;8.110;2022-12-26T11:55:44;0.43;;;0.38;;
21771;SDS011;11047;47.904;8.110;2022-12-26T11:58:22;0.40;;;0.40;;
21771;SDS011;11047;47.904;8.110;2022-12-26T12:01:14;0.30;;;0.30;;
21771;SDS011;11047;47.904;8.110;2022-12-26T12:03:42;0.17;;;0.10;;
21771;SDS011;11047;47.904;8.110;2022-12-26T12:06:14;0.40;;;0.40;;
21771;SDS011;11047;47.904;8.110;2022-12-26T12:09:05;1.45;;;0.20;;
21771;SDS011;11047;47.904;8.110;2022-12-26T12:11:43;0.20;;;0.20;;
21771;SDS011;11047;47.904;8.110;2022-12-26T12:14:22;0.20;;;0.20;;
21771;SDS011;11047;47.904;8.110;2022-12-26T12:17:09;0.13;;;0.13;;
21771;SDS011;11047;47.904;8.110;2022-12-26T12:19:51;1.27;;;0.30;;
21771;SDS011;11047;47.904;8.110;2022-12-26T12:22:37;0.60;;;0.40;;
21771;SDS011;11047;47.904;8.110;2022-12-26T12:25:20;0.45;;;0.43;;
21771;SDS011;11047;47.904;8.110;2022-12-26T12:30:29;0.20;;;0.20;;
21771;SDS011;11047;47.904;8.110;2022-12-26T12:33:09;0.30;;;0.30;;
21771;SDS011;11047;47.904;8.110;2022-12-26T12:35:55;0.28;;;0.20;;
21771;SDS011;11047;47.904;8.110;2022-12-26T12:38:29;0.20;;;0.20;;
21771;SDS011;11047;47.904;8.110;2022-12-26T12:41:05;0.40;;;0.40;;
21771;SDS011;11047;47.904;8.110;2022-12-26T12:43:51;0.30;;;0.30;;
21771;SDS011;11047;47.904;8.110;2022-12-26T12:46:26;0.10;;;0.10;;
21771;SDS011;11047;47.904;8.110;2022-12-26T12:49:05;0.35;;;0.35;;
21771;SDS011;11047;47.904;8.110;2022-12-26T12:51:45;0.30;;;0.30;;
21771;SDS011;11047;47.904;8.110;2022-12-26T12:54:22;0.30;;;0.30;;
21771;SDS011;11047;47.904;8.110;2022-12-26T12:57:08;0.35;;;0.35;;
21771;SDS011;11047;47.904;8.110;2022-12-26T12:59:42;0.10;;;0.10;;
21771;SDS011;11047;47.904;8.110;2022-12-26T13:02:22;0.45;;;0.25;;
21771;SDS011;11047;47.904;8.110;2022-12-26T13:04:58;0.20;;;0.20;;
21771;SDS011;11047;47.904;8.110;2022-12-26T13:07:38;0.20;;;0.20;;
21771;SDS011;11047;47.904;8.110;2022-12-26T13:10:12;0.25;;;0.25;;
21771;SDS011;11047;47.904;8.110;2022-12-26T13:12:44;0.20;;;0.20;;
21771;SDS011;11047;47.904;8.110;2022-12-26T13:15:16;0.43;;;0.30;;
21771;SDS011;11047;47.904;8.110;2022-12-26T13:17:52;0.20;;;0.20;;
21771;SDS011;11047;47.904;8.110;2022-12-26T13:20:26;0.60;;;0.38;;
21771;SDS011;11047;47.904;8.110;2022-12-26T13:22:57;0.65;;;0.20;;
21771;SDS011;11047;47.904;8.110;2022-12-26T13:25:47;0.32;;;0.30;;
21771;SDS011;11047;47.904;8.110;2022-12-26T13:28:21;1.98;;;0.10;;
21771;SDS011;11047;47.904;8.110;2022-12-26T13:30:55;0.25;;;0.25;;
21771;SDS011;11047;47.904;8.110;2022-12-26T13:33:23;0.30;;;0.22;;
21771;SDS011;11047;47.904;8.110;2022-12-26T13:35:53;0.20;;;0.20;;
21771;SDS011;11047;47.904;8.110;2022-12-26T13:38:22;0.20;;;0.20;;
21771;SDS011;11047;47.904;8.110;2022-12-26T13:40:52;0.30;;;0.30;;
21771;SDS011;11047;47.904;8.110;2022-12-26T13:46:35;0.20;;;0.20;;
21771;SDS011;11047;47.904;8.110;2022-12-26T13:49:03;0.10;;;0.10;;
21771;SDS011;11047;47.904;8.110;2022-12-26T13:51:48;0.20;;;0.20;;
21771;SDS011;11047;47.904;8.110;2022-12-26T13:54:17;2.45;;;0.68;;
21771;SDS011;11047;47.904;8.110;2022-12-26T13:57:05;0.30;;;0.30;;
21771;SDS011;11047;47.904;8.110;2022-12-26T13:59:59;0.35;;;0.20;;
21771;SDS011;11047;47.904;8.110;2022-12-26T14:05:43;0.20;;;0.20;;
21771;SDS011;11047;47.904;8.110;2022-12-26T14:08:23;0.20;;;0.20;;
21771;SDS011;11047;47.904;8.110;2022-12-26T14:11:01;0.35;;;0.30;;
21771;SDS011;11047;47.904;8.110;2022-12-26T14:13:47;0.22;;;0.22;;
21771;SDS011;11047;47.904;8.110;2022-12-26T14:16:22;0.40;;;0.30;;
21771;SDS011;11047;47.904;8.110;2022-12-26T14:21:45;0.10;;;0.10;;
21771;SDS011;11047;47.904;8.110;2022-12-26T14:24:22;0.43;;;0.43;;
21771;SDS011;11047;47.904;8.110;2022-12-26T14:26:57;0.40;;;0.40;;
21771;SDS011;11047;47.904;8.110;2022-12-26T14:29:39;0.43;;;0.43;;
21771;SDS011;11047;47.904;8.110;2022-12-26T14:32:16;0.32;;;0.30;;
21771;SDS011;11047;47.904;8.110;2022-12-26T14:34:59;1.70;;;0.40;;
21771;SDS011;11047;47.904;8.110;2022-12-26T14:37:34;0.60;;;0.60;;
21771;SDS011;11047;47.904;8.110;2022-12-26T14:40:22;0.30;;;0.30;;
21771;SDS011;11047;47.904;8.110;2022-12-26T14:43:01;0.20;;;0.20;;
21771;SDS011;11047;47.904;8.110;2022-12-26T14:45:44;0.30;;;0.30;;
21771;SDS011;11047;47.904;8.110;2022-12-26T14:51:32;0.47;;;0.20;;
21771;SDS011;11047;47.904;8.110;2022-12-26T15:00:17;0.55;;;0.52;;
21771;SDS011;11047;47.904;8.110;2022-12-26T15:09:10;0.30;;;0.28;;
21771;SDS011;11047;47.904;8.110;2022-12-26T15:11:59;1.67;;;0.35;;
21771;SDS011;11047;47.904;8.110;2022-12-26T15:14:59;1.48;;;0.40;;
21771;SDS011;11047;47.904;8.110;2022-12-26T15:17:44;0.22;;;0.22;;
21771;SDS011;11047;47.904;8.110;2022-12-26T15:20:33;0.73;;;0.40;;
21771;SDS011;11047;47.904;8.110;2022-12-26T15:23:23;0.80;;;0.32;;
21771;SDS011;11047;47.904;8.110;2022-12-26T15:26:14;0.30;;;0.30;;
21771;SDS011;11047;47.904;8.110;2022-12-26T15:29:10;0.28;;;0.20;;
21771;SDS011;11047;47.904;8.110;2022-12-26T15:31:54;0.20;;;0.20;;
21771;SDS011;11047;47.904;8.110;2022-12-26T15:34:36;5.30;;;1.08;;
21771;SDS011;11047;47.904;8.110;2022-12-26T15:37:13;0.20;;;0.20;;
21771;SDS011;11047;47.904;8.110;2022-12-26T15:39:55;0.20;;;0.20;;
21771;SDS011;11047;47.904;8.110;2022-12-26T15:42:35;0.30;;;0.30;;
21771;SDS011;11047;47.904;8.110;2022-12-26T15:45:24;0.30;;;0.30;;
21771;SDS011;11047;47.904;8.110;2022-12-26T15:48:02;0.40;;;0.40;;
21771;SDS011;11047;47.904;8.110;2022-12-26T15:53:18;1.15;;;0.20;;
21771;SDS011;11047;47.904;8.110;2022-12-26T15:56:00;0.40;;;0.30;;
21771;SDS011;11047;47.904;8.110;2022-12-26T16:01:13;1.63;;;0.35;;
21771;SDS011;11047;47.904;8.110;2022-12-26T16:04:01;0.60;;;0.32;;
21771;SDS011;11047;47.904;8.110;2022-12-26T16:06:37;0.55;;;0.30;;
21771;SDS011;11047;47.904;8.110;2022-12-26T16:09:19;0.45;;;0.45;;
21771;SDS011;11047;47.904;8.110;2022-12-26T16:11:57;0.40;;;0.40;;
21771;SDS011;11047;47.904;8.110;2022-12-26T16:14:27;0.38;;;0.38;;
21771;SDS011;11047;47.904;8.110;2022-12-26T16:19:47;0.40;;;0.40;;
21771;SDS011;11047;47.904;8.110;2022-12-26T16:22:16;0.43;;;0.40;;